Time;durP1;ratioP1;P1;durP2;ratioP2;P2;SDS_P1;SDS_P2;PMS_P1;PMS_P2;Temp;Humidity;BMP_temperature;BMP_pressure;BME280_temperature;BME280_humidity;BME280_pressure;Samples;Min_cycle;Max_cycle;Signal;HPM_P1;HPM_P2
2021/07/11 00:00:55;;;;;;;3.10;2.80;;;30.10;99.90;;;;;;5014922;28;20237;-95
2021/07/11 00:03:27;;;;;;;3.27;2.97;;;30.50;99.90;;;;;;5015012;28;20210;-95
2021/07/11 00:05:59;;;;;;;4.80;2.97;;;30.80;99.90;;;;;;5014197;28;20313;-95
2021/07/11 00:08:30;;;;;;;6.03;3.07;;;30.90;99.90;;;;;;5015891;28;20633;-96
2021/07/11 00:11:01;;;;;;;5.17;2.70;;;30.90;99.90;;;;;;5014579;28;20293;-95
2021/07/11 00:13:33;;;;;;;2.93;2.63;;;30.70;99.90;;;;;;5015146;28;20629;-94
2021/07/11 00:16:04;;;;;;;3.83;2.77;;;30.50;99.90;;;;;;5015327;28;20209;-94
2021/07/11 00:18:36;;;;;;;3.30;3.00;;;29.60;99.90;;;;;;5014515;28;20212;-94
2021/07/11 00:21:08;;;;;;;3.20;2.90;;;29.60;99.90;;;;;;5015384;28;20233;-95
2021/07/11 00:23:40;;;;;;;3.50;2.63;;;29.90;99.90;;;;;;5014950;28;20296;-94
2021/07/11 00:26:10;;;;;;;4.43;2.90;;;29.90;99.90;;;;;;5015013;28;20297;-95
2021/07/11 00:28:42;;;;;;;4.53;2.80;;;29.90;99.90;;;;;;5015137;28;20236;-95
2021/07/11 00:31:13;;;;;;;2.93;2.60;;;30.20;99.90;;;;;;5012844;28;20277;-95
2021/07/11 00:33:44;;;;;;;3.33;2.80;;;30.00;99.90;;;;;;5021130;28;20235;-95
2021/07/11 00:36:17;;;;;;;3.43;3.07;;;30.00;99.90;;;;;;5035607;28;20215;-94
2021/07/11 00:38:47;;;;;;;3.70;2.60;;;30.10;99.90;;;;;;5035160;28;20297;-94
2021/07/11 00:41:19;;;;;;;4.70;2.33;;;29.40;99.90;;;;;;5032992;28;20204;-94
2021/07/11 00:43:50;;;;;;;5.53;2.70;;;29.60;99.90;;;;;;5035060;28;20303;-94
2021/07/11 00:46:21;;;;;;;5.10;2.80;;;29.60;99.90;;;;;;5034598;28;20236;-94
2021/07/11 00:48:53;;;;;;;3.83;2.50;;;29.60;99.90;;;;;;5034609;28;20212;-93
2021/07/11 00:51:26;;;;;;;4.30;2.43;;;29.50;99.90;;;;;;5037207;28;20271;-94
2021/07/11 00:53:57;;;;;;;4.20;2.70;;;29.40;99.90;;;;;;5035009;28;20295;-94
2021/07/11 00:56:28;;;;;;;5.50;2.53;;;29.70;99.90;;;;;;5035235;28;20247;-94
2021/07/11 00:59:00;;;;;;;4.10;3.00;;;29.90;99.90;;;;;;5034882;28;20274;-94
2021/07/11 01:01:38;;;;;;;3.20;2.30;;;30.30;99.90;;;;;;4994944;28;20305;-95
2021/07/11 01:04:15;;;;;;;3.27;2.77;;;30.60;99.90;;;;;;4995076;28;20270;-94
2021/07/11 01:06:56;;;;;;;3.70;3.07;;;31.00;99.90;;;;;;4994941;28;20206;-95
2021/07/11 01:09:33;;;;;;;4.07;2.80;;;31.20;99.90;;;;;;4994879;28;20238;-95
2021/07/11 01:12:10;;;;;;;4.00;2.80;;;31.70;99.90;;;;;;4994254;28;20210;-95
2021/07/11 01:14:44;;;;;;;4.33;2.83;;;32.10;99.90;;;;;;4994022;28;20234;-94
2021/07/11 01:17:16;;;;;;;5.23;3.00;;;32.30;99.90;;;;;;5015387;28;20751;-94
2021/07/11 01:19:59;;;;;;;2.80;2.60;;;32.50;99.90;;;;;;5019098;28;20635;-93
2021/07/11 01:22:40;;;;;;;2.97;2.70;;;32.50;99.90;;;;;;5016899;28;20214;-94
2021/07/11 01:25:15;;;;;;;5.32;2.90;;;32.10;99.90;;;;;;5016276;28;20316;-94
2021/07/11 01:27:49;;;;;;;5.85;2.88;;;32.00;99.90;;;;;;5016335;28;20296;-95
2021/07/11 01:30:20;;;;;;;3.50;2.70;;;32.20;99.90;;;;;;5013836;28;20205;-94
2021/07/11 01:32:53;;;;;;;4.45;2.75;;;32.50;99.90;;;;;;5014306;28;20217;-95
2021/07/11 01:35:25;;;;;;;4.72;3.00;;;32.40;99.90;;;;;;5015067;28;20648;-95
2021/07/11 01:37:57;;;;;;;4.30;2.50;;;32.30;99.90;;;;;;5012771;28;20213;-94
2021/07/11 01:40:31;;;;;;;2.90;2.70;;;31.50;99.90;;;;;;5013476;28;20279;-94
2021/07/11 01:43:09;;;;;;;6.20;3.00;;;31.10;99.90;;;;;;5017695;28;20206;-94
2021/07/11 01:45:43;;;;;;;3.10;2.80;;;30.70;99.90;;;;;;5018259;28;20275;-95
2021/07/11 01:48:15;;;;;;;3.97;2.60;;;31.30;99.90;;;;;;5017605;28;20288;-95
2021/07/11 01:50:50;;;;;;;3.35;2.67;;;31.40;99.90;;;;;;5017281;28;20213;-95
2021/07/11 01:53:25;;;;;;;3.70;2.88;;;31.80;99.90;;;;;;5018618;28;20209;-94
2021/07/11 01:55:57;;;;;;;3.13;2.60;;;32.10;99.90;;;;;;5018189;28;20210;-94
2021/07/11 01:58:30;;;;;;;5.68;2.90;;;31.50;99.90;;;;;;5023851;28;20232;-94
2021/07/11 02:01:02;;;;;;;4.95;2.63;;;32.00;99.90;;;;;;5037683;28;20658;-95
2021/07/11 02:03:34;;;;;;;4.43;2.67;;;31.90;99.90;;;;;;5036561;28;20217;-95
2021/07/11 02:06:06;;;;;;;2.70;2.50;;;31.90;99.90;;;;;;5036739;28;20723;-94
2021/07/11 02:08:38;;;;;;;3.10;2.80;;;32.20;99.90;;;;;;5037435;28;20240;-96
2021/07/11 02:11:11;;;;;;;4.05;3.17;;;32.20;99.90;;;;;;5037759;28;20276;-94
2021/07/11 02:13:50;;;;;;;3.35;2.90;;;32.40;99.90;;;;;;5051052;28;20201;-95
2021/07/11 02:16:30;;;;;;;4.00;3.03;;;32.50;99.90;;;;;;5050047;28;20185;-95
2021/07/11 02:19:04;;;;;;;4.90;2.80;;;32.60;99.90;;;;;;5039045;28;20193;-96
2021/07/11 02:21:35;;;;;;;4.22;2.80;;;32.30;99.90;;;;;;5019486;28;20217;-95
2021/07/11 02:24:07;;;;;;;4.25;2.10;;;32.20;99.90;;;;;;5019037;28;20615;-95
2021/07/11 02:26:39;;;;;;;4.25;2.40;;;31.90;99.90;;;;;;5021629;28;20269;-95
2021/07/11 02:29:13;;;;;;;2.47;2.22;;;31.60;99.90;;;;;;5017705;28;20316;-96
2021/07/11 02:31:45;;;;;;;4.05;2.22;;;31.40;99.90;;;;;;5024673;28;20223;-95
2021/07/11 02:34:19;;;;;;;2.97;2.00;;;31.30;99.90;;;;;;5032871;28;20217;-95
2021/07/11 02:36:53;;;;;;;6.30;1.93;;;31.10;99.90;;;;;;5017062;28;20271;-94
2021/07/11 02:39:25;;;;;;;2.37;2.13;;;30.30;99.90;;;;;;5018787;28;20236;-94
2021/07/11 02:41:59;;;;;;;3.33;2.20;;;28.90;99.90;;;;;;5018216;28;20213;-93
2021/07/11 02:44:33;;;;;;;4.20;1.97;;;28.10;99.90;;;;;;5016512;28;20201;-94
2021/07/11 02:47:08;;;;;;;4.07;2.30;;;27.40;99.90;;;;;;5018434;28;20317;-94
2021/07/11 02:49:43;;;;;;;6.53;2.60;;;26.80;99.90;;;;;;5017550;28;20269;-94
2021/07/11 02:52:17;;;;;;;3.17;2.13;;;26.30;99.90;;;;;;5017564;28;20219;-95
2021/07/11 02:54:51;;;;;;;4.60;2.50;;;25.90;99.90;;;;;;5018596;28;20213;-95
2021/07/11 02:57:26;;;;;;;3.67;2.17;;;25.50;99.90;;;;;;5018469;28;20281;-96
2021/07/11 03:00:01;;;;;;;3.57;2.63;;;25.20;99.90;;;;;;5017394;28;20217;-95
2021/07/11 03:02:34;;;;;;;3.23;2.30;;;25.00;99.90;;;;;;5016885;28;20236;-95
2021/07/11 03:05:06;;;;;;;3.57;2.60;;;24.80;99.90;;;;;;5018196;28;20276;-95
2021/07/11 03:07:38;;;;;;;5.93;2.53;;;24.60;99.90;;;;;;5017797;28;20296;-95
2021/07/11 03:10:12;;;;;;;2.97;2.10;;;24.40;99.90;;;;;;5018712;28;20234;-95
2021/07/11 03:12:44;;;;;;;3.53;2.33;;;24.20;99.90;;;;;;5020008;28;20643;-94
2021/07/11 03:15:22;;;;;;;2.93;2.00;;;24.10;99.90;;;;;;5019949;28;20209;-95
2021/07/11 03:17:55;;;;;;;2.77;2.30;;;23.90;99.90;;;;;;5019285;28;20233;-93
2021/07/11 03:20:27;;;;;;;2.40;2.20;;;23.80;99.90;;;;;;5017096;28;20229;-95
2021/07/11 03:22:59;;;;;;;3.27;2.17;;;23.70;99.90;;;;;;5017935;28;20205;-95
2021/07/11 03:25:32;;;;;;;4.57;2.30;;;23.60;99.90;;;;;;5017682;28;20237;-94
2021/07/11 03:28:06;;;;;;;4.00;2.57;;;23.50;99.90;;;;;;5017262;28;20237;-94
2021/07/11 03:30:46;;;;;;;2.77;2.33;;;23.50;99.90;;;;;;5016508;28;20304;-95
2021/07/11 03:33:18;;;;;;;3.40;2.10;;;23.30;99.90;;;;;;5017242;28;21019;-94
2021/07/11 03:35:53;;;;;;;5.03;2.60;;;23.20;99.90;;;;;;5019060;28;20229;-94
2021/07/11 03:38:26;;;;;;;2.73;2.10;;;23.10;99.90;;;;;;5017885;28;20285;-94
2021/07/11 03:40:58;;;;;;;3.73;2.07;;;23.00;99.90;;;;;;5025235;28;20206;-95
2021/07/11 03:43:34;;;;;;;2.63;1.90;;;22.90;99.90;;;;;;5021914;28;20237;-96
2021/07/11 03:46:10;;;;;;;2.90;2.07;;;22.80;99.90;;;;;;4998681;28;20282;-95
2021/07/11 03:48:44;;;;;;;2.30;1.97;;;22.70;99.90;;;;;;5021155;28;20239;-96
2021/07/11 03:51:23;;;;;;;2.33;2.07;;;22.60;99.90;;;;;;5023723;28;20252;-95
2021/07/11 03:53:56;;;;;;;3.73;1.83;;;22.40;99.90;;;;;;5021935;28;20236;-95
2021/07/11 03:56:30;;;;;;;3.50;1.70;;;22.30;99.90;;;;;;4999476;28;20268;-96
2021/07/11 03:59:12;;;;;;;2.40;2.10;;;22.30;99.90;;;;;;5003812;28;20260;-94
2021/07/11 04:01:49;;;;;;;4.13;2.60;;;22.20;99.90;;;;;;5021837;28;20205;-95
2021/07/11 04:04:24;;;;;;;8.93;4.37;;;22.10;99.90;;;;;;5000396;28;20212;-95
2021/07/11 04:06:58;;;;;;;3.40;3.10;;;21.80;99.90;;;;;;5012609;28;20304;-95
2021/07/11 04:09:31;;;;;;;3.30;2.80;;;21.60;99.90;;;;;;5022590;28;20213;-95
2021/07/11 04:12:09;;;;;;;3.53;2.47;;;21.50;99.90;;;;;;5020095;28;20204;-94
2021/07/11 04:14:40;;;;;;;4.83;2.40;;;21.40;99.90;;;;;;5027348;28;20212;-94
2021/07/11 04:17:15;;;;;;;3.40;2.63;;;21.20;99.90;;;;;;5026322;28;20217;-94
2021/07/11 04:19:49;;;;;;;5.00;2.27;;;21.20;99.90;;;;;;5029428;28;20279;-95
2021/07/11 04:22:21;;;;;;;3.73;2.17;;;21.00;99.90;;;;;;5035357;28;20200;-95
2021/07/11 04:24:55;;;;;;;5.93;3.57;;;21.00;99.90;;;;;;5036564;28;20189;-94
2021/07/11 04:27:32;;;;;;;12.20;7.87;;;20.90;99.90;;;;;;5036445;28;20228;-95
2021/07/11 04:30:03;;;;;;;3.80;3.40;;;20.80;99.90;;;;;;5035370;28;20220;-96
2021/07/11 04:32:37;;;;;;;3.70;2.53;;;20.70;99.90;;;;;;5034306;28;20213;-95
2021/07/11 04:35:08;;;;;;;2.97;2.07;;;20.60;99.90;;;;;;5026501;28;20584;-94
2021/07/11 04:37:42;;;;;;;5.50;2.80;;;20.50;99.90;;;;;;5029062;28;20205;-96
2021/07/11 04:40:14;;;;;;;3.20;2.80;;;20.50;99.90;;;;;;5036958;28;20221;-95
2021/07/11 04:42:46;;;;;;;3.60;2.73;;;20.50;99.90;;;;;;5037045;28;20197;-95
2021/07/11 04:45:19;;;;;;;3.73;2.77;;;20.40;99.90;;;;;;5036559;28;20201;-94
2021/07/11 04:47:54;;;;;;;2.43;2.23;;;20.20;99.90;;;;;;5032549;28;20256;-95
2021/07/11 04:50:25;;;;;;;4.80;3.27;;;20.20;99.90;;;;;;5025731;28;20237;-94
2021/07/11 04:52:56;;;;;;;4.70;2.73;;;20.20;99.90;;;;;;5016974;28;20582;-94
2021/07/11 04:55:28;;;;;;;3.80;3.27;;;20.10;99.90;;;;;;5016393;28;20292;-94
2021/07/11 04:58:01;;;;;;;7.40;4.73;;;20.10;99.90;;;;;;5015877;28;20713;-93
2021/07/11 05:00:32;;;;;;;5.00;3.07;;;20.10;99.90;;;;;;5015422;28;20295;-93
2021/07/11 05:03:05;;;;;;;4.87;2.50;;;20.00;99.90;;;;;;5018748;28;20229;-94
2021/07/11 05:05:37;;;;;;;7.13;2.83;;;19.90;99.90;;;;;;5014822;28;20229;-93
2021/07/11 05:08:09;;;;;;;6.77;3.53;;;19.90;99.90;;;;;;5016080;28;20237;-93
2021/07/11 05:10:41;;;;;;;4.27;2.57;;;19.80;99.90;;;;;;5014903;28;20214;-94
2021/07/11 05:13:13;;;;;;;3.67;2.43;;;19.60;99.90;;;;;;5018376;28;20275;-94
2021/07/11 05:15:45;;;;;;;3.23;2.40;;;19.50;99.90;;;;;;5016471;28;20586;-93
2021/07/11 05:18:20;;;;;;;4.63;3.80;;;19.50;99.90;;;;;;5018276;28;20218;-94
2021/07/11 05:20:55;;;;;;;5.93;3.27;;;19.40;99.90;;;;;;5031402;28;20205;-94
2021/07/11 05:23:26;;;;;;;5.10;2.83;;;19.40;99.90;;;;;;5025078;28;20319;-94
2021/07/11 05:25:57;;;;;;;4.27;2.80;;;19.30;99.90;;;;;;5019456;28;20206;-94
2021/07/11 05:28:29;;;;;;;5.03;2.67;;;19.30;99.90;;;;;;5019751;28;20687;-94
2021/07/11 05:31:00;;;;;;;3.43;2.20;;;19.20;99.90;;;;;;5020833;28;20233;-94
2021/07/11 05:33:33;;;;;;;3.03;1.80;;;19.10;99.90;;;;;;5026880;28;20209;-92
2021/07/11 05:36:04;;;;;;;3.43;2.10;;;19.10;99.90;;;;;;5027776;28;20221;-93
2021/07/11 05:38:37;;;;;;;3.53;2.10;;;19.00;99.90;;;;;;5032637;28;20229;-93
2021/07/11 05:41:12;;;;;;;3.00;2.03;;;19.00;99.90;;;;;;5027229;28;20301;-94
2021/07/11 05:43:43;;;;;;;3.90;2.43;;;18.90;99.90;;;;;;5027148;28;20228;-94
2021/07/11 05:46:16;;;;;;;3.30;2.03;;;18.80;99.90;;;;;;5040755;28;20197;-94
2021/07/11 05:48:51;;;;;;;4.40;2.30;;;18.80;99.90;;;;;;5024247;28;20202;-94
2021/07/11 05:51:35;;;;;;;4.40;2.13;;;18.70;99.90;;;;;;5022261;28;20241;-95
2021/07/11 05:54:06;;;;;;;6.43;2.17;;;18.60;99.90;;;;;;5042871;28;20211;-94
2021/07/11 05:56:38;;;;;;;5.27;2.20;;;18.50;99.90;;;;;;5039221;28;20182;-94
2021/07/11 05:59:14;;;;;;;2.70;1.80;;;18.50;99.90;;;;;;5039892;28;20665;-94
2021/07/11 06:01:46;;;;;;;4.73;2.23;;;18.40;99.90;;;;;;5025722;28;20216;-94
2021/07/11 06:04:21;;;;;;;4.63;2.33;;;18.30;99.90;;;;;;5031787;28;20224;-93
2021/07/11 06:06:53;;;;;;;5.40;2.33;;;18.20;99.90;;;;;;5032454;28;20244;-94
2021/07/11 06:09:24;;;;;;;3.73;2.10;;;18.20;99.90;;;;;;5032210;28;20212;-94
2021/07/11 06:12:15;;;;;;;3.07;2.10;;;18.10;99.90;;;;;;5038946;28;20214;-95
2021/07/11 06:14:49;;;;;;;3.97;1.90;;;18.10;99.90;;;;;;5029185;28;20198;-94
2021/07/11 06:17:26;;;;;;;3.60;2.23;;;18.00;99.90;;;;;;5023714;28;20221;-94
2021/07/11 06:20:02;;;;;;;3.83;2.40;;;18.00;99.90;;;;;;5024996;28;20233;-96
2021/07/11 06:22:47;;;;;;;4.97;2.20;;;17.90;99.90;;;;;;5039597;28;20203;-94
2021/07/11 06:25:19;;;;;;;3.63;2.10;;;17.90;99.90;;;;;;5039309;28;20272;-94
2021/07/11 06:27:52;;;;;;;2.20;1.90;;;17.80;99.90;;;;;;5021456;28;20268;-94
2021/07/11 06:30:25;;;;;;;4.63;2.00;;;17.70;99.90;;;;;;5020052;28;20289;-94
2021/07/11 06:35:45;;;;;;;4.47;2.03;;;17.60;99.90;;;;;;5034241;28;20688;-95
2021/07/11 06:38:17;;;;;;;3.80;2.50;;;17.50;99.90;;;;;;5040925;28;20588;-94
2021/07/11 06:40:53;;;;;;;3.80;2.03;;;17.50;99.90;;;;;;5033187;28;20206;-95
2021/07/11 06:43:24;;;;;;;5.33;2.30;;;17.50;99.90;;;;;;5020143;28;20625;-95
2021/07/11 06:45:56;;;;;;;2.30;2.07;;;17.50;99.90;;;;;;5018782;28;20237;-94
2021/07/11 06:48:35;;;;;;;3.10;2.23;;;17.50;99.90;;;;;;5023518;28;20249;-94
2021/07/11 06:51:28;;;;;;;3.93;1.90;;;17.40;99.90;;;;;;5002122;28;20207;-94
2021/07/11 06:57:09;;;;;;;3.73;2.20;;;17.30;99.90;;;;;;5019121;28;20220;-93
2021/07/11 06:59:40;;;;;;;5.50;2.10;;;17.20;99.90;;;;;;5019447;28;20221;-93
2021/07/11 07:02:12;;;;;;;6.13;2.40;;;17.20;99.90;;;;;;5035678;28;20178;-93
2021/07/11 07:04:43;;;;;;;7.73;2.10;;;17.20;99.90;;;;;;5047498;28;20247;-93
2021/07/11 07:07:17;;;;;;;3.00;1.83;;;17.20;99.90;;;;;;5055823;28;20190;-94
2021/07/11 07:09:49;;;;;;;2.50;2.00;;;17.20;99.90;;;;;;5015191;28;20637;-93
2021/07/11 07:12:22;;;;;;;4.63;1.90;;;17.10;99.90;;;;;;5021712;28;20240;-93
2021/07/11 07:17:38;;;;;;;4.53;1.73;;;17.10;99.90;;;;;;5033154;28;20243;-93
2021/07/11 07:20:23;;;;;;;3.73;1.70;;;17.10;99.90;;;;;;5047478;28;20205;-94
2021/07/11 07:23:00;;;;;;;2.47;1.67;;;17.00;99.90;;;;;;5031495;28;20233;-94
2021/07/11 07:25:32;;;;;;;3.20;1.73;;;17.00;99.90;;;;;;5017959;28;20237;-93
2021/07/11 07:28:06;;;;;;;4.07;2.17;;;17.00;99.90;;;;;;5028572;28;20639;-93
2021/07/11 07:30:37;;;;;;;3.40;1.97;;;16.90;99.90;;;;;;5017906;28;20300;-94
2021/07/11 07:33:12;;;;;;;3.33;1.70;;;16.90;99.90;;;;;;5018577;28;20209;-93
2021/07/11 07:35:43;;;;;;;3.73;2.47;;;16.90;99.90;;;;;;5018351;28;20275;-93
2021/07/11 07:38:17;;;;;;;2.97;1.77;;;16.80;99.90;;;;;;5017556;28;20221;-94
2021/07/11 07:40:48;;;;;;;2.70;1.50;;;16.90;99.90;;;;;;5015461;28;20205;-93
2021/07/11 07:43:20;;;;;;;4.80;1.93;;;16.80;99.90;;;;;;5017060;28;20623;-94
2021/07/11 07:45:51;;;;;;;5.87;1.83;;;16.60;99.90;;;;;;5016707;28;20268;-93
2021/07/11 07:48:22;;;;;;;3.50;1.90;;;16.50;99.90;;;;;;5016522;28;20327;-93
2021/07/11 07:50:55;;;;;;;3.20;2.00;;;16.50;99.90;;;;;;5015636;28;20214;-93
2021/07/11 07:53:30;;;;;;;4.67;2.10;;;16.40;99.90;;;;;;5016183;28;20245;-93
2021/07/11 07:56:01;;;;;;;3.93;1.87;;;16.40;99.90;;;;;;5018293;28;20569;-94
2021/07/11 07:58:35;;;;;;;4.83;2.17;;;16.40;99.90;;;;;;5017626;28;20256;-94
2021/07/11 08:01:09;;;;;;;4.60;2.00;;;16.40;99.90;;;;;;4999568;28;20214;-94
2021/07/11 08:03:40;;;;;;;2.70;1.77;;;16.30;99.90;;;;;;4997037;28;20211;-95
2021/07/11 08:06:12;;;;;;;2.50;1.67;;;16.30;99.90;;;;;;4996861;28;20297;-94
2021/07/11 08:08:45;;;;;;;5.67;2.13;;;16.30;99.90;;;;;;4996955;28;20284;-94
2021/07/11 08:11:16;;;;;;;4.17;1.90;;;16.30;99.90;;;;;;4995184;28;20209;-95
2021/07/11 08:13:47;;;;;;;4.43;1.80;;;16.30;99.90;;;;;;4996575;28;20690;-95
2021/07/11 08:16:18;;;;;;;3.50;1.90;;;16.30;99.90;;;;;;4996613;28;20224;-95
2021/07/11 08:18:51;;;;;;;4.30;1.87;;;16.20;99.90;;;;;;4996935;28;20218;-95
2021/07/11 08:21:22;;;;;;;3.20;1.70;;;16.20;99.90;;;;;;4996632;28;20277;-95
2021/07/11 08:23:56;;;;;;;3.27;1.80;;;16.20;99.90;;;;;;5003940;28;20532;-94
2021/07/11 08:26:27;;;;;;;3.57;1.70;;;16.20;99.90;;;;;;5035784;28;20232;-95
2021/07/11 08:28:58;;;;;;;2.50;1.60;;;16.20;99.90;;;;;;5036614;28;20261;-93
2021/07/11 08:31:30;;;;;;;3.87;2.17;;;16.10;99.90;;;;;;5025788;28;20718;-94
2021/07/11 08:34:02;;;;;;;5.10;1.90;;;16.10;99.90;;;;;;5017442;28;20214;-93
2021/07/11 08:36:33;;;;;;;3.47;2.13;;;16.10;99.90;;;;;;5015291;28;20205;-92
2021/07/11 08:39:10;;;;;;;3.10;1.90;;;16.00;99.90;;;;;;5016063;28;20217;-93
2021/07/11 08:41:40;;;;;;;3.23;1.70;;;16.00;99.90;;;;;;5015190;28;20244;-93
2021/07/11 08:44:14;;;;;;;5.07;1.90;;;16.00;99.90;;;;;;5016094;28;20544;-92
2021/07/11 08:46:45;;;;;;;2.83;1.70;;;15.90;99.90;;;;;;5015695;28;20201;-93
2021/07/11 08:49:17;;;;;;;5.27;2.40;;;15.90;99.90;;;;;;5015442;28;20611;-93
2021/07/11 08:51:48;;;;;;;4.90;1.80;;;15.90;99.90;;;;;;5016283;28;20236;-92
2021/07/11 08:54:21;;;;;;;4.33;1.80;;;15.80;99.90;;;;;;5022101;28;20260;-93
2021/07/11 08:56:58;;;;;;;3.57;1.63;;;15.80;99.90;;;;;;5023141;28;20284;-92
2021/07/11 08:59:30;;;;;;;5.27;1.80;;;15.70;99.90;;;;;;5022466;28;20232;-92
2021/07/11 09:02:01;;;;;;;3.20;1.70;;;15.70;99.90;;;;;;5021311;28;20236;-92
2021/07/11 09:04:40;;;;;;;4.37;1.87;;;15.80;99.90;;;;;;5022378;28;20220;-93
2021/07/11 09:07:19;;;;;;;5.90;1.70;;;15.80;99.90;;;;;;5022506;28;20624;-93
2021/07/11 09:09:57;;;;;;;6.33;1.83;;;15.70;99.90;;;;;;5022602;28;20253;-93
2021/07/11 09:12:31;;;;;;;3.33;2.00;;;15.70;99.90;;;;;;5022956;28;20271;-93
2021/07/11 09:15:04;;;;;;;4.30;1.83;;;15.70;99.90;;;;;;5025865;28;20638;-93
2021/07/11 09:17:40;;;;;;;3.53;1.97;;;15.60;99.90;;;;;;5037156;28;20240;-93
2021/07/11 09:20:11;;;;;;;5.63;2.17;;;15.50;99.90;;;;;;5023065;28;20233;-93
2021/07/11 09:22:46;;;;;;;5.00;1.90;;;15.60;99.90;;;;;;5034278;28;20194;-92
2021/07/11 09:25:23;;;;;;;5.40;2.20;;;15.60;99.90;;;;;;5022885;28;20224;-94
2021/07/11 09:27:57;;;;;;;5.43;2.03;;;15.60;99.90;;;;;;5022938;28;20213;-93
2021/07/11 09:30:28;;;;;;;3.33;2.00;;;15.50;99.90;;;;;;5004740;28;20234;-93
2021/07/11 09:32:59;;;;;;;6.77;1.90;;;15.50;99.90;;;;;;5005744;28;20206;-93
2021/07/11 09:35:30;;;;;;;2.93;1.87;;;15.40;99.90;;;;;;5007366;28;20217;-93
2021/07/11 09:38:02;;;;;;;4.80;1.77;;;15.40;99.90;;;;;;5007478;28;20221;-92
2021/07/11 09:40:35;;;;;;;3.60;1.90;;;15.30;99.90;;;;;;5015678;28;20236;-92
2021/07/11 09:43:13;;;;;;;2.73;2.03;;;15.30;99.90;;;;;;5008069;28;20277;-92
2021/07/11 09:45:45;;;;;;;5.10;2.00;;;15.30;99.90;;;;;;5008273;28;20240;-93
2021/07/11 09:48:16;;;;;;;3.70;1.60;;;15.30;99.90;;;;;;5021989;28;20278;-92
2021/07/11 09:50:49;;;;;;;6.73;2.60;;;15.20;99.90;;;;;;5021765;28;20210;-92
2021/07/11 09:53:27;;;;;;;5.33;2.10;;;15.10;99.90;;;;;;5022597;28;20202;-93
2021/07/11 09:56:00;;;;;;;3.87;1.87;;;15.10;99.90;;;;;;5021643;28;20202;-93
2021/07/11 09:58:33;;;;;;;4.53;1.83;;;15.00;99.90;;;;;;5020798;28;20210;-92
2021/07/11 10:01:04;;;;;;;3.53;2.00;;;14.90;99.90;;;;;;5002364;28;20570;-93
2021/07/11 10:03:36;;;;;;;4.70;1.70;;;14.90;99.90;;;;;;5000733;28;20215;-93
2021/07/11 10:06:08;;;;;;;4.37;1.97;;;14.90;99.90;;;;;;4999513;28;20214;-92
2021/07/11 10:08:43;;;;;;;2.90;1.60;;;14.90;99.90;;;;;;4999165;28;20210;-93
2021/07/11 10:11:17;;;;;;;5.50;2.20;;;14.80;99.90;;;;;;5007976;28;20233;-93
2021/07/11 10:13:49;;;;;;;5.87;1.93;;;14.90;99.90;;;;;;5018919;28;20692;-93
2021/07/11 10:16:21;;;;;;;2.53;1.90;;;14.80;99.90;;;;;;5017630;28;20368;-93
2021/07/11 10:18:57;;;;;;;4.77;1.90;;;14.80;99.90;;;;;;5017852;28;20206;-94
2021/07/11 10:21:32;;;;;;;3.67;2.03;;;14.80;99.90;;;;;;5031144;28;20204;-93
2021/07/11 10:24:04;;;;;;;3.97;1.70;;;14.80;99.90;;;;;;5017719;28;20529;-92
2021/07/11 10:26:42;;;;;;;4.87;1.63;;;14.80;99.90;;;;;;5018257;28;20217;-93
2021/07/11 10:29:15;;;;;;;3.23;1.73;;;14.80;99.90;;;;;;5018157;28;20244;-92
2021/07/11 10:31:49;;;;;;;4.93;2.00;;;14.70;99.90;;;;;;5018735;28;20252;-93
2021/07/11 10:34:31;;;;;;;7.10;2.20;;;14.80;99.90;;;;;;5018530;28;20244;-93
2021/07/11 10:37:13;;;;;;;4.43;2.03;;;14.70;99.90;;;;;;5018545;28;20210;-93
2021/07/11 10:39:45;;;;;;;5.13;2.10;;;14.70;99.90;;;;;;5022527;28;20235;-93
2021/07/11 10:42:29;;;;;;;4.93;1.70;;;14.60;99.90;;;;;;5036836;28;20267;-93
2021/07/11 10:45:09;;;;;;;4.43;2.00;;;14.60;99.90;;;;;;5050391;28;20236;-93
2021/07/11 10:47:40;;;;;;;3.20;1.70;;;14.50;99.90;;;;;;5053484;28;20201;-93
2021/07/11 10:50:23;;;;;;;4.07;1.77;;;14.50;99.90;;;;;;5048785;28;20275;-92
2021/07/11 10:52:54;;;;;;;4.43;2.40;;;14.50;99.90;;;;;;5039435;28;20296;-92
2021/07/11 10:55:26;;;;;;;4.40;1.83;;;14.50;99.90;;;;;;5046114;28;20228;-92
2021/07/11 10:57:59;;;;;;;3.67;1.90;;;14.50;99.90;;;;;;5042016;28;20705;-91
2021/07/11 11:00:30;;;;;;;3.83;1.80;;;14.50;99.90;;;;;;5044536;28;20205;-92
2021/07/11 11:03:01;;;;;;;6.43;2.47;;;14.50;99.90;;;;;;5044925;28;20228;-92
2021/07/11 11:05:44;;;;;;;3.43;1.87;;;14.40;99.90;;;;;;5056196;28;20197;-92
2021/07/11 11:08:19;;;;;;;3.77;2.03;;;14.40;99.90;;;;;;5041198;28;20227;-93
2021/07/11 11:10:52;;;;;;;3.97;1.60;;;14.40;99.90;;;;;;5036959;28;20719;-93
2021/07/11 11:13:32;;;;;;;4.27;2.00;;;14.30;99.90;;;;;;5027566;28;20209;-93
2021/07/11 11:16:17;;;;;;;4.47;2.10;;;14.30;99.90;;;;;;5027096;28;20221;-89
2021/07/11 11:18:53;;;;;;;4.87;1.63;;;14.20;99.90;;;;;;5035796;28;20206;-91
2021/07/11 11:21:26;;;;;;;4.10;1.93;;;14.20;99.90;;;;;;5028733;28;20193;-92
2021/07/11 11:23:59;;;;;;;4.53;2.00;;;14.20;99.90;;;;;;5031400;28;20237;-92
2021/07/11 11:26:32;;;;;;;3.97;2.00;;;14.20;99.90;;;;;;5029488;28;20288;-93
2021/07/11 11:29:06;;;;;;;5.57;2.40;;;14.20;99.90;;;;;;5023313;28;20240;-93
2021/07/11 11:31:39;;;;;;;5.57;2.13;;;14.20;99.90;;;;;;5015831;28;20241;-92
2021/07/11 11:34:11;;;;;;;6.47;2.10;;;14.00;99.90;;;;;;5017068;28;20213;-92
2021/07/11 11:36:44;;;;;;;4.60;2.00;;;14.00;99.90;;;;;;5017091;28;20202;-92
2021/07/11 11:39:22;;;;;;;4.43;2.20;;;13.90;99.90;;;;;;5016746;28;20225;-92
2021/07/11 11:41:53;;;;;;;4.23;1.93;;;13.90;99.90;;;;;;5017524;28;20670;-93
2021/07/11 11:44:28;;;;;;;3.17;1.73;;;13.90;99.90;;;;;;5037820;28;20197;-92
2021/07/11 11:47:00;;;;;;;3.40;1.67;;;14.00;99.90;;;;;;5037397;28;20236;-92
2021/07/11 11:49:34;;;;;;;3.27;1.87;;;13.90;99.90;;;;;;5029394;28;20663;-92
2021/07/11 11:52:06;;;;;;;4.57;2.40;;;13.80;99.90;;;;;;5016152;28;20206;-92
2021/07/11 11:54:40;;;;;;;4.50;1.90;;;13.70;99.90;;;;;;5017255;28;20269;-91
2021/07/11 11:57:13;;;;;;;5.53;1.90;;;13.70;99.90;;;;;;5017454;28;20253;-91
2021/07/11 11:59:51;;;;;;;4.03;1.80;;;13.70;99.90;;;;;;5016263;28;20213;-92
2021/07/11 12:02:24;;;;;;;5.27;2.00;;;13.80;99.90;;;;;;5015759;28;20213;-91
2021/07/11 12:04:56;;;;;;;4.07;2.03;;;13.40;99.90;;;;;;5016440;28;20217;-91
2021/07/11 12:07:27;;;;;;;5.50;2.50;;;13.40;99.90;;;;;;5016303;28;20217;-94
2021/07/11 12:09:58;;;;;;;2.80;1.70;;;13.30;99.90;;;;;;5015711;28;20316;-92
2021/07/11 12:12:29;;;;;;;5.07;2.13;;;13.40;99.90;;;;;;5015758;28;20209;-91
2021/07/11 12:15:02;;;;;;;3.30;2.13;;;13.40;99.90;;;;;;5015780;28;20206;-91
2021/07/11 12:17:35;;;;;;;4.83;2.17;;;13.50;99.90;;;;;;5015891;28;20666;-91
2021/07/11 12:20:07;;;;;;;2.77;1.70;;;13.40;99.90;;;;;;5015220;28;20276;-92
2021/07/11 12:22:40;;;;;;;4.03;2.10;;;13.40;99.90;;;;;;5015834;28;20321;-92
2021/07/11 12:25:21;;;;;;;4.30;2.80;;;13.40;99.90;;;;;;5016286;28;20209;-92
2021/07/11 12:28:01;;;;;;;5.07;2.37;;;13.40;99.90;;;;;;5015121;28;20269;-92
2021/07/11 12:30:43;;;;;;;3.40;1.63;;;13.40;99.90;;;;;;5014395;28;20236;-92
2021/07/11 12:33:14;;;;;;;4.93;2.10;;;13.30;99.90;;;;;;5015170;28;20288;-92
2021/07/11 12:35:48;;;;;;;3.73;1.90;;;13.40;99.90;;;;;;5015053;28;20292;-92
2021/07/11 12:38:29;;;;;;;4.27;2.17;;;13.30;99.90;;;;;;5014399;28;20233;-92
2021/07/11 12:41:02;;;;;;;4.83;2.17;;;13.30;99.90;;;;;;5015398;28;20288;-92
2021/07/11 12:43:34;;;;;;;5.20;2.33;;;13.30;99.90;;;;;;5015320;28;20209;-92
2021/07/11 12:46:11;;;;;;;6.03;2.20;;;13.10;99.90;;;;;;5015594;28;20205;-92
2021/07/11 12:48:44;;;;;;;4.47;2.17;;;12.90;99.90;;;;;;5015557;28;20619;-92
2021/07/11 12:51:20;;;;;;;4.97;2.23;;;13.00;99.90;;;;;;5014427;28;20552;-92
2021/07/11 12:53:53;;;;;;;3.30;2.20;;;13.10;99.90;;;;;;5015262;28;20213;-93
2021/07/11 12:56:25;;;;;;;4.10;2.00;;;13.20;99.90;;;;;;5015899;28;20252;-92
2021/07/11 12:59:03;;;;;;;3.73;1.90;;;13.30;99.90;;;;;;5015229;28;20209;-91
2021/07/11 13:01:37;;;;;;;2.70;2.00;;;13.30;99.90;;;;;;4995198;28;20234;-92
2021/07/11 13:04:10;;;;;;;3.70;2.00;;;13.30;99.90;;;;;;4996010;28;20220;-92
2021/07/11 13:06:41;;;;;;;4.80;2.17;;;13.30;99.90;;;;;;4995559;28;20296;-92
2021/07/11 13:09:15;;;;;;;5.80;2.13;;;13.30;99.90;;;;;;5026122;28;20205;-92
2021/07/11 13:11:45;;;;;;;4.43;1.90;;;13.30;99.90;;;;;;5033511;28;20335;-91
2021/07/11 13:14:17;;;;;;;3.00;1.80;;;13.40;99.90;;;;;;5035008;28;20272;-92
2021/07/11 13:16:51;;;;;;;3.87;1.93;;;13.40;99.90;;;;;;5034821;28;20292;-92
2021/07/11 13:19:22;;;;;;;4.47;1.73;;;13.40;99.90;;;;;;5035079;28;20221;-92
2021/07/11 13:21:53;;;;;;;3.53;1.80;;;13.50;99.90;;;;;;5033933;28;20235;-92
2021/07/11 13:24:24;;;;;;;3.60;1.80;;;13.50;99.90;;;;;;5033835;28;20316;-92
2021/07/11 13:26:55;;;;;;;3.27;1.80;;;13.60;99.90;;;;;;5034732;28;20621;-92
2021/07/11 13:29:26;;;;;;;3.47;2.20;;;13.60;99.90;;;;;;5034758;28;20235;-92